Time;durP1;ratioP1;P1;durP2;ratioP2;P2;SDS_P1;SDS_P2;PMS_P1;PMS_P2;Temp;Humidity;BMP_temperature;BMP_pressure;BME280_temperature;BME280_humidity;BME280_pressure;Samples;Min_cycle;Max_cycle;Signal;HPM_P1;HPM_P2
2022/01/11 00:02:17;;;;;;;40.65;24.17;;;2.20;99.90;;;;;;5056020;28;20111;-54
2022/01/11 00:04:43;;;;;;;30.60;17.13;;;2.20;99.90;;;;;;5056088;28;20064;-54
2022/01/11 00:07:13;;;;;;;37.65;23.15;;;2.10;99.90;;;;;;5020565;28;20426;-53
2022/01/11 00:09:41;;;;;;;25.13;13.75;;;2.20;99.90;;;;;;5055666;28;20043;-54
2022/01/11 00:12:09;;;;;;;40.83;24.00;;;2.30;99.90;;;;;;5055500;28;20040;-51
2022/01/11 00:14:36;;;;;;;40.08;25.33;;;2.40;99.90;;;;;;5055277;28;20054;-53
2022/01/11 00:17:02;;;;;;;41.20;24.33;;;2.40;99.90;;;;;;5055302;28;20036;-51
2022/01/11 00:19:32;;;;;;;38.42;23.23;;;2.40;99.90;;;;;;5055476;28;20037;-51
2022/01/11 00:22:01;;;;;;;41.20;24.33;;;2.70;99.90;;;;;;5056851;28;20033;-55
2022/01/11 00:24:28;;;;;;;40.25;24.50;;;2.70;99.90;;;;;;5058321;28;20082;-53
2022/01/11 00:26:58;;;;;;;43.50;24.10;;;2.80;99.90;;;;;;5054946;28;20029;-52
2022/01/11 00:29:24;;;;;;;40.63;24.50;;;2.80;99.90;;;;;;5020030;28;20079;-55
2022/01/11 00:31:50;;;;;;;38.80;22.67;;;2.80;99.90;;;;;;5020105;28;20065;-53
2022/01/11 00:34:18;;;;;;;41.72;24.20;;;2.90;99.90;;;;;;5055248;28;20033;-52
2022/01/11 00:36:44;;;;;;;27.00;16.98;;;2.90;99.90;;;;;;5055403;28;20131;-51
2022/01/11 00:39:11;;;;;;;39.60;23.40;;;2.80;99.90;;;;;;5036618;28;20033;-54
2022/01/11 00:41:42;;;;;;;40.60;23.15;;;2.90;99.90;;;;;;5020120;28;20047;-52
2022/01/11 00:44:08;;;;;;;39.80;24.15;;;2.90;99.90;;;;;;5036573;28;20106;-52
2022/01/11 00:46:34;;;;;;;41.70;24.40;;;2.90;99.90;;;;;;5019719;28;20048;-54
2022/01/11 00:49:00;;;;;;;37.03;23.83;;;3.00;99.90;;;;;;5019771;28;20048;-55
2022/01/11 00:51:26;;;;;;;35.67;23.50;;;2.70;99.90;;;;;;5055377;28;20384;-55
2022/01/11 00:53:52;;;;;;;38.05;22.10;;;2.90;99.90;;;;;;5036489;28;20057;-54
2022/01/11 00:56:18;;;;;;;40.58;24.75;;;2.80;99.90;;;;;;5019650;28;20440;-53
2022/01/11 00:58:44;;;;;;;38.30;23.83;;;2.70;99.90;;;;;;5054782;28;20041;-52
2022/01/11 01:01:10;;;;;;;43.33;26.00;;;;;;;;;;5054648;28;20053;-54
2022/01/11 01:03:37;;;;;;;41.42;24.00;;;2.60;99.90;;;;;;5054781;28;20135;-53
2022/01/11 01:06:03;;;;;;;40.83;24.80;;;2.70;99.90;;;;;;5054647;28;20111;-52
2022/01/11 01:08:29;;;;;;;41.25;24.27;;;2.90;99.90;;;;;;5036737;28;20120;-53
2022/01/11 01:10:55;;;;;;;42.60;25.35;;;2.90;99.90;;;;;;5054660;28;20091;-55
2022/01/11 01:13:23;;;;;;;28.75;16.30;;;2.90;99.90;;;;;;5019367;28;20044;-52
2022/01/11 01:15:51;;;;;;;37.70;22.92;;;2.80;99.90;;;;;;5054368;28;20036;-52
2022/01/11 01:18:21;;;;;;;35.28;21.30;;;2.60;99.90;;;;;;5054226;28;20041;-53
2022/01/11 01:20:48;;;;;;;39.40;24.25;;;2.50;99.90;;;;;;5054234;28;20500;-53
2022/01/11 01:23:14;;;;;;;39.60;23.58;;;2.50;99.90;;;;;;5054173;28;20087;-51
2022/01/11 01:25:44;;;;;;;40.70;24.75;;;2.50;99.90;;;;;;5019325;28;20037;-53
2022/01/11 01:28:11;;;;;;;31.40;19.17;;;2.50;99.90;;;;;;5054180;28;20021;-53
2022/01/11 01:30:38;;;;;;;36.40;22.13;;;2.40;99.90;;;;;;5054081;28;20087;-54
2022/01/11 01:33:04;;;;;;;35.40;21.27;;;2.50;99.90;;;;;;5054136;28;20094;-51
2022/01/11 01:35:38;;;;;;;31.02;19.00;;;2.40;99.90;;;;;;5053894;28;20109;-55
2022/01/11 01:38:04;;;;;;;32.80;21.23;;;2.50;99.90;;;;;;5053284;28;20393;-55
2022/01/11 01:40:37;;;;;;;36.45;21.80;;;2.50;99.90;;;;;;5012120;28;20073;-53
2022/01/11 01:43:05;;;;;;;36.72;21.83;;;2.50;99.90;;;;;;5011960;28;20046;-53
2022/01/11 01:45:31;;;;;;;31.48;20.00;;;2.60;99.90;;;;;;5011746;28;20491;-52
2022/01/11 01:47:58;;;;;;;32.03;20.38;;;2.70;99.90;;;;;;4978970;28;20082;-54
2022/01/11 01:50:25;;;;;;;34.55;21.85;;;2.70;99.90;;;;;;4995476;28;20038;-53
2022/01/11 01:52:52;;;;;;;35.30;20.70;;;2.70;99.90;;;;;;5011831;28;20034;-55
2022/01/11 01:55:18;;;;;;;25.60;14.20;;;2.80;99.90;;;;;;5011960;28;20057;-53
2022/01/11 01:57:44;;;;;;;31.40;20.00;;;2.60;99.90;;;;;;5011647;28;20037;-54
2022/01/11 02:00:12;;;;;;;31.17;19.88;;;2.70;99.90;;;;;;5011353;28;20108;-53
2022/01/11 02:02:41;;;;;;;27.50;17.48;;;2.60;99.90;;;;;;4963468;28;20604;-52
2022/01/11 02:05:07;;;;;;;27.75;16.75;;;2.50;99.90;;;;;;5011575;28;20516;-52
2022/01/11 02:07:33;;;;;;;24.75;15.20;;;2.40;99.90;;;;;;5011750;28;20093;-54
2022/01/11 02:10:01;;;;;;;18.55;11.68;;;2.30;99.90;;;;;;4978898;28;20481;-54
2022/01/11 02:12:30;;;;;;;25.35;15.07;;;2.10;99.90;;;;;;5049752;28;20075;-54
2022/01/11 02:14:56;;;;;;;23.67;13.38;;;2.00;99.90;;;;;;5053477;28;20044;-51
2022/01/11 02:17:22;;;;;;;22.98;12.50;;;1.80;99.90;;;;;;5053245;28;20049;-52
2022/01/11 02:19:47;;;;;;;23.38;13.43;;;1.70;99.90;;;;;;5053404;28;20033;-52
2022/01/11 02:22:13;;;;;;;15.15;10.30;;;1.90;99.90;;;;;;5053288;28;20025;-53
2022/01/11 02:24:39;;;;;;;24.42;14.80;;;1.70;99.90;;;;;;5053382;28;20108;-51
2022/01/11 02:27:05;;;;;;;15.63;8.65;;;1.80;99.90;;;;;;5053105;28;20021;-54
2022/01/11 02:29:31;;;;;;;17.85;9.55;;;1.80;99.90;;;;;;5001214;28;20147;-55
2022/01/11 02:31:57;;;;;;;22.90;13.73;;;1.70;99.90;;;;;;5052864;28;20055;-53
2022/01/11 02:34:23;;;;;;;19.17;13.32;;;1.90;99.90;;;;;;5053161;28;20141;-53
2022/01/11 02:36:49;;;;;;;24.00;14.43;;;1.90;99.90;;;;;;5053636;28;20380;-54
2022/01/11 02:39:15;;;;;;;26.98;15.38;;;2.00;99.90;;;;;;5018341;28;20059;-54
2022/01/11 02:41:56;;;;;;;23.90;14.15;;;2.20;99.90;;;;;;5053094;28;20028;-53
2022/01/11 02:44:21;;;;;;;21.88;13.38;;;2.10;99.90;;;;;;5067267;28;20025;-52
2022/01/11 02:46:47;;;;;;;21.80;13.68;;;2.10;99.90;;;;;;5014592;28;20114;-54
2022/01/11 02:49:13;;;;;;;24.67;13.38;;;2.30;99.90;;;;;;5033831;28;20030;-53
2022/01/11 02:51:39;;;;;;;22.50;14.88;;;2.40;99.90;;;;;;5037291;28;20063;-52
2022/01/11 02:54:05;;;;;;;22.45;13.95;;;2.30;99.90;;;;;;5037474;28;20091;-52
2022/01/11 02:56:31;;;;;;;24.55;14.20;;;2.40;99.90;;;;;;5037210;28;20033;-53
2022/01/11 02:58:57;;;;;;;16.90;10.05;;;2.40;99.90;;;;;;5036888;28;20022;-54
2022/01/11 03:01:23;;;;;;;23.13;13.80;;;2.40;99.90;;;;;;5036888;28;20044;-55
2022/01/11 03:03:51;;;;;;;10.20;5.88;;;2.20;99.90;;;;;;5036969;28;20512;-52
2022/01/11 03:06:17;;;;;;;23.67;14.20;;;2.20;99.90;;;;;;5036929;28;20042;-51
2022/01/11 03:08:46;;;;;;;22.48;13.38;;;2.30;99.90;;;;;;5034970;28;20055;-53
2022/01/11 03:11:16;;;;;;;26.25;15.95;;;2.40;99.90;;;;;;5036459;28;20033;-54
2022/01/11 03:13:43;;;;;;;26.92;16.40;;;2.40;99.90;;;;;;5036870;28;20540;-53
2022/01/11 03:16:11;;;;;;;22.88;15.25;;;2.50;99.90;;;;;;5051338;28;20084;-52
2022/01/11 03:18:37;;;;;;;23.23;13.52;;;2.50;99.90;;;;;;5037049;28;20044;-53
2022/01/11 03:21:03;;;;;;;23.98;13.80;;;2.60;99.90;;;;;;5034969;28;20108;-51
2022/01/11 03:23:30;;;;;;;24.95;15.13;;;2.60;99.90;;;;;;5036816;28;20025;-51
2022/01/11 03:25:56;;;;;;;24.35;15.00;;;2.70;99.90;;;;;;5051599;28;20112;-54
2022/01/11 03:28:24;;;;;;;21.30;11.80;;;2.70;99.90;;;;;;5036637;28;20045;-57
2022/01/11 03:30:52;;;;;;;24.27;15.15;;;2.70;99.90;;;;;;5039346;28;20029;-54
2022/01/11 03:33:18;;;;;;;24.27;15.13;;;2.80;99.90;;;;;;5038634;28;20049;-52
2022/01/11 03:35:44;;;;;;;23.48;14.95;;;2.90;99.90;;;;;;5039579;28;20041;-68
2022/01/11 03:38:12;;;;;;;26.35;15.80;;;2.90;99.90;;;;;;5037219;28;20053;-52
2022/01/11 03:40:39;;;;;;;24.02;14.18;;;2.90;99.90;;;;;;5034222;28;20026;-52
2022/01/11 03:43:05;;;;;;;23.15;15.20;;;2.80;99.90;;;;;;5034348;28;20038;-52
2022/01/11 03:45:32;;;;;;;23.23;12.65;;;2.70;99.90;;;;;;5034137;28;20037;-55
2022/01/11 03:48:00;;;;;;;21.65;14.20;;;2.80;99.90;;;;;;5050928;28;20508;-53
2022/01/11 03:50:26;;;;;;;23.30;14.70;;;2.80;99.90;;;;;;5054004;28;20515;-52
2022/01/11 03:52:59;;;;;;;19.33;10.48;;;2.80;99.90;;;;;;5053918;28;20092;-52
2022/01/11 03:55:58;;;;;;;18.70;10.73;;;2.60;99.90;;;;;;5053885;28;20036;-54
2022/01/11 03:58:26;;;;;;;17.98;11.20;;;2.20;99.90;;;;;;5053686;28;20444;-54
2022/01/11 04:00:53;;;;;;;22.17;12.77;;;2.10;99.90;;;;;;5052904;28;20514;-55
2022/01/11 04:03:19;;;;;;;19.80;11.23;;;2.00;99.90;;;;;;5053923;28;20427;-54
2022/01/11 04:05:46;;;;;;;16.50;9.57;;;2.00;99.90;;;;;;5056161;28;20098;-51
2022/01/11 04:08:12;;;;;;;12.82;6.75;;;1.90;99.90;;;;;;5055901;28;20116;-52
2022/01/11 04:10:38;;;;;;;19.75;12.45;;;1.90;99.90;;;;;;5055764;28;20029;-54
2022/01/11 04:13:04;;;;;;;20.33;13.30;;;1.90;99.90;;;;;;5055591;28;20032;-53
2022/01/11 04:15:30;;;;;;;19.92;11.05;;;1.90;99.90;;;;;;5055977;28;20066;-51
2022/01/11 04:17:56;;;;;;;24.00;12.68;;;2.00;99.90;;;;;;5055694;28;20071;-52
2022/01/11 04:20:22;;;;;;;20.88;12.48;;;2.10;99.90;;;;;;5055742;28;20445;-53
2022/01/11 04:22:51;;;;;;;19.75;11.98;;;2.10;99.90;;;;;;5055714;28;20037;-54
2022/01/11 04:25:18;;;;;;;20.70;13.77;;;2.00;99.90;;;;;;5055878;28;20186;-55
2022/01/11 04:27:44;;;;;;;23.80;12.65;;;2.10;99.90;;;;;;5055757;28;20095;-51
2022/01/11 04:30:11;;;;;;;19.63;10.07;;;2.20;99.90;;;;;;5055706;28;20021;-54
2022/01/11 04:32:37;;;;;;;12.02;6.93;;;1.90;99.90;;;;;;5020219;28;20029;-54
2022/01/11 04:35:04;;;;;;;21.85;12.63;;;1.90;99.90;;;;;;5055454;28;20044;-53
2022/01/11 04:37:29;;;;;;;16.88;9.35;;;2.00;99.90;;;;;;5055285;28;20033;-51
2022/01/11 04:39:55;;;;;;;20.67;12.82;;;2.00;99.90;;;;;;5055701;28;20036;-53
2022/01/11 04:42:21;;;;;;;23.50;15.27;;;2.20;99.90;;;;;;5055265;28;20056;-55
2022/01/11 04:44:47;;;;;;;27.30;15.40;;;2.40;99.90;;;;;;5055402;28;20029;-55
2022/01/11 04:47:13;;;;;;;19.70;12.68;;;2.60;99.90;;;;;;5066255;28;20040;-53
2022/01/11 04:49:38;;;;;;;22.58;14.32;;;2.70;99.90;;;;;;5074977;28;20025;-53
2022/01/11 04:52:05;;;;;;;20.45;12.43;;;2.70;99.90;;;;;;5075154;28;20016;-55
2022/01/11 04:54:30;;;;;;;23.30;14.38;;;2.40;99.90;;;;;;5023536;28;20037;-54
2022/01/11 04:56:56;;;;;;;21.83;12.55;;;2.60;99.90;;;;;;5056824;28;20040;-55
2022/01/11 04:59:22;;;;;;;16.15;10.85;;;2.80;99.90;;;;;;5075013;28;20357;-53
2022/01/11 05:01:48;;;;;;;21.77;13.07;;;2.70;99.90;;;;;;5073830;28;20163;-53
2022/01/11 05:04:14;;;;;;;19.20;11.73;;;2.80;99.90;;;;;;5065518;28;20103;-52
2022/01/11 05:06:40;;;;;;;13.40;8.48;;;2.70;99.90;;;;;;5059324;28;20043;-54
2022/01/11 05:09:06;;;;;;;15.00;9.05;;;2.40;99.90;;;;;;5054881;28;20025;-54
2022/01/11 05:11:32;;;;;;;17.48;10.10;;;2.40;99.90;;;;;;5054829;28;20025;-51
2022/01/11 05:13:57;;;;;;;18.52;12.32;;;2.20;99.90;;;;;;5054602;28;20021;-53
2022/01/11 05:16:23;;;;;;;19.65;11.35;;;2.30;99.90;;;;;;5019412;28;20372;-53
2022/01/11 05:18:49;;;;;;;19.60;12.00;;;2.20;99.90;;;;;;5054142;28;20037;-51
2022/01/11 05:21:15;;;;;;;19.42;12.88;;;2.10;99.90;;;;;;5054597;28;20021;-55
2022/01/11 05:23:40;;;;;;;19.15;11.75;;;2.30;99.90;;;;;;5054116;28;20122;-51
2022/01/11 05:26:06;;;;;;;11.30;7.00;;;2.20;99.90;;;;;;5062580;28;20066;-52
2022/01/11 05:28:34;;;;;;;19.58;10.30;;;2.00;99.90;;;;;;5074417;28;20031;-52
2022/01/11 05:31:01;;;;;;;18.05;11.50;;;2.00;99.90;;;;;;5073970;28;20056;-54
2022/01/11 05:33:27;;;;;;;14.75;8.68;;;1.90;99.90;;;;;;5074744;28;20028;-51
2022/01/11 05:35:53;;;;;;;14.77;10.32;;;1.90;99.90;;;;;;5074179;28;20028;-53
2022/01/11 05:38:19;;;;;;;10.77;6.15;;;1.90;99.90;;;;;;5074201;28;20040;-53
2022/01/11 05:40:45;;;;;;;16.27;10.27;;;1.60;99.90;;;;;;5073760;28;20029;-52
2022/01/11 05:43:12;;;;;;;14.40;7.30;;;1.60;99.90;;;;;;5022532;28;20062;-54
2022/01/11 05:45:38;;;;;;;14.55;8.95;;;1.50;99.90;;;;;;5067760;28;20033;-51
2022/01/11 05:48:05;;;;;;;17.20;9.48;;;1.40;99.90;;;;;;5053894;28;20060;-54
2022/01/11 05:50:31;;;;;;;15.70;8.80;;;1.40;99.90;;;;;;5053817;28;20021;-52
2022/01/11 05:52:57;;;;;;;16.45;8.82;;;1.30;99.90;;;;;;5053569;28;20044;-53
2022/01/11 05:55:23;;;;;;;17.55;10.98;;;1.40;99.90;;;;;;5059022;28;20115;-53
2022/01/11 05:57:49;;;;;;;15.77;8.52;;;1.50;99.90;;;;;;5012946;28;20176;-54
2022/01/11 06:00:18;;;;;;;18.30;11.30;;;1.40;99.90;;;;;;5062891;28;20078;-51
2022/01/11 06:02:46;;;;;;;10.63;6.95;;;1.40;99.90;;;;;;5038240;28;20131;-54
2022/01/11 06:05:12;;;;;;;17.27;11.63;;;1.20;99.90;;;;;;5067199;28;20039;-51
2022/01/11 06:07:39;;;;;;;16.77;10.10;;;1.30;99.90;;;;;;5043222;28;20037;-53
2022/01/11 06:10:06;;;;;;;16.13;9.60;;;1.30;99.90;;;;;;5067294;28;20434;-53
2022/01/11 06:12:32;;;;;;;19.92;10.40;;;1.40;99.90;;;;;;5064146;28;20044;-54
2022/01/11 06:14:58;;;;;;;19.33;10.75;;;1.40;99.90;;;;;;5064223;28;20473;-54
2022/01/11 06:17:23;;;;;;;20.23;11.88;;;1.40;99.90;;;;;;5027214;28;20131;-53
2022/01/11 06:19:49;;;;;;;19.98;11.23;;;1.60;99.90;;;;;;5067187;28;20093;-48
2022/01/11 06:22:15;;;;;;;18.85;10.05;;;1.70;99.90;;;;;;5012938;28;20037;-53
2022/01/11 06:24:41;;;;;;;21.30;12.82;;;1.90;99.90;;;;;;5070310;28;20124;-55
2022/01/11 06:27:06;;;;;;;19.42;11.88;;;2.00;99.90;;;;;;5067036;28;20021;-54
2022/01/11 06:29:32;;;;;;;22.08;13.52;;;2.00;99.90;;;;;;4985155;28;20503;-53
2022/01/11 06:31:58;;;;;;;18.75;11.25;;;2.00;99.90;;;;;;5064004;28;20040;-52
2022/01/11 06:34:24;;;;;;;18.60;11.48;;;2.00;99.90;;;;;;5062473;28;20036;-54
2022/01/11 06:36:49;;;;;;;20.77;12.82;;;2.00;99.90;;;;;;5063212;28;20536;-53
2022/01/11 06:39:15;;;;;;;16.58;9.77;;;2.10;99.90;;;;;;5061877;28;20021;-52
2022/01/11 06:41:42;;;;;;;18.52;11.20;;;1.90;99.90;;;;;;4979950;28;20392;-54
2022/01/11 06:44:09;;;;;;;13.35;8.60;;;1.70;99.90;;;;;;5061907;28;20032;-53
2022/01/11 06:46:35;;;;;;;17.83;11.35;;;1.50;99.90;;;;;;5063341;28;20122;-52
2022/01/11 06:49:01;;;;;;;17.17;10.10;;;1.60;99.90;;;;;;5055689;28;20056;-53
2022/01/11 06:51:27;;;;;;;20.75;12.00;;;1.70;99.90;;;;;;5073064;28;20479;-52
2022/01/11 06:53:53;;;;;;;18.73;11.80;;;1.60;99.90;;;;;;5073093;28;20032;-51
2022/01/11 06:56:20;;;;;;;18.83;11.52;;;1.50;99.90;;;;;;5073121;28;20029;-52
2022/01/11 06:58:46;;;;;;;11.35;6.28;;;1.50;99.90;;;;;;5072640;28;20125;-54
2022/01/11 07:01:11;;;;;;;16.92;11.00;;;1.40;99.90;;;;;;5073883;28;20052;-53
2022/01/11 07:03:38;;;;;;;9.93;6.03;;;1.30;99.90;;;;;;5074970;28;20530;-53
2022/01/11 07:06:04;;;;;;;17.58;11.18;;;1.30;99.90;;;;;;5074727;28;20357;-52
2022/01/11 07:08:29;;;;;;;16.63;10.57;;;1.30;99.90;;;;;;5073796;28;20024;-52
2022/01/11 07:10:55;;;;;;;17.77;11.65;;;1.50;99.90;;;;;;5037827;28;20040;-52
2022/01/11 07:13:21;;;;;;;14.90;7.75;;;1.50;99.90;;;;;;5073090;28;20358;-53
2022/01/11 07:15:47;;;;;;;10.90;5.57;;;1.40;99.90;;;;;;5073102;28;20414;-52
2022/01/11 07:18:13;;;;;;;18.50;11.40;;;1.40;99.90;;;;;;5037566;28;20040;-52
2022/01/11 07:20:42;;;;;;;20.17;12.77;;;1.50;99.90;;;;;;5073036;28;20035;-53
2022/01/11 07:23:08;;;;;;;20.42;12.35;;;1.70;99.90;;;;;;5072797;28;20029;-54
2022/01/11 07:25:35;;;;;;;9.77;5.15;;;1.70;99.90;;;;;;5072893;28;20400;-54
2022/01/11 07:28:01;;;;;;;14.27;8.38;;;1.70;99.90;;;;;;5073227;28;20035;-52
2022/01/11 07:30:27;;;;;;;44.38;36.35;;;1.50;99.90;;;;;;5072889;28;20021;-53
2022/01/11 07:32:53;;;;;;;27.83;20.05;;;1.60;99.90;;;;;;5072646;28;20032;-51
2022/01/11 07:35:18;;;;;;;14.35;8.55;;;1.70;99.90;;;;;;5037261;28;20040;-54
2022/01/11 07:37:45;;;;;;;17.55;9.90;;;1.70;99.90;;;;;;4991665;28;20453;-53
2022/01/11 07:40:11;;;;;;;16.67;10.80;;;1.60;99.90;;;;;;5041518;28;20033;-53
2022/01/11 07:42:37;;;;;;;11.95;7.30;;;1.70;99.90;;;;;;5041472;28;20043;-53
2022/01/11 07:45:03;;;;;;;18.77;12.77;;;1.60;99.90;;;;;;5076726;28;20111;-53
2022/01/11 07:47:29;;;;;;;59.25;30.80;;;1.70;99.90;;;;;;5039954;28;20052;-52
2022/01/11 07:49:55;;;;;;;218.23;96.50;;;1.80;99.90;;;;;;5075650;28;20020;-53
2022/01/11 07:52:20;;;;;;;119.45;60.72;;;1.90;99.90;;;;;;5075814;28;20028;-52
2022/01/11 07:54:46;;;;;;;364.15;151.25;;;2.00;99.90;;;;;;5076135;28;20024;-51
2022/01/11 07:57:12;;;;;;;110.75;49.92;;;2.00;99.90;;;;;;5075944;28;20078;-54
2022/01/11 07:59:38;;;;;;;96.10;49.17;;;2.20;99.90;;;;;;5075583;28;20475;-53
2022/01/11 08:02:04;;;;;;;305.58;163.07;;;2.00;99.90;;;;;;5040222;28;20037;-54
2022/01/11 08:04:31;;;;;;;119.72;64.03;;;2.40;99.90;;;;;;5057159;28;20556;-52
2022/01/11 08:07:01;;;;;;;41.05;23.90;;;2.60;99.90;;;;;;5075597;28;20036;-46
2022/01/11 08:09:27;;;;;;;27.95;17.95;;;2.80;99.90;;;;;;5023487;28;20037;-46
2022/01/11 08:11:56;;;;;;;95.97;47.22;;;3.00;99.90;;;;;;5056829;28;20047;-45
2022/01/11 08:14:22;;;;;;;86.72;43.35;;;3.00;99.90;;;;;;5075399;28;20170;-44
2022/01/11 08:16:48;;;;;;;26.92;19.02;;;2.80;99.90;;;;;;5040183;28;20124;-46
2022/01/11 08:19:14;;;;;;;49.97;28.00;;;3.00;99.90;;;;;;5067493;28;20028;-46
2022/01/11 08:21:40;;;;;;;114.30;54.63;;;2.90;99.90;;;;;;4978587;28;20392;-47
2022/01/11 08:24:06;;;;;;;33.33;20.88;;;3.00;99.90;;;;;;5022847;28;20044;-48
2022/01/11 08:26:32;;;;;;;58.20;28.83;;;2.70;99.90;;;;;;5061847;28;20487;-48
2022/01/11 08:28:58;;;;;;;25.08;15.73;;;2.30;99.90;;;;;;5020288;28;20040;-48
2022/01/11 08:31:25;;;;;;;12.55;7.95;;;2.30;99.90;;;;;;5065724;28;20028;-49
2022/01/11 08:33:51;;;;;;;25.33;15.27;;;1.80;99.90;;;;;;5064274;28;20024;-47
2022/01/11 08:36:17;;;;;;;19.48;11.13;;;1.90;99.90;;;;;;5064143;28;20028;-47
2022/01/11 08:38:42;;;;;;;33.97;21.42;;;1.80;99.90;;;;;;5063001;28;20090;-47
2022/01/11 08:41:09;;;;;;;29.42;18.70;;;2.00;99.90;;;;;;5028136;28;20072;-48
2022/01/11 08:43:35;;;;;;;24.35;17.70;;;2.30;99.90;;;;;;5065617;28;20525;-48
2022/01/11 08:46:04;;;;;;;26.55;18.33;;;2.60;99.90;;;;;;5028089;28;20484;-47
2022/01/11 08:48:31;;;;;;;24.13;16.00;;;2.80;99.90;;;;;;5027943;28;20039;-48
2022/01/11 08:50:57;;;;;;;37.28;26.15;;;3.00;99.90;;;;;;5064171;28;20104;-48
2022/01/11 08:53:23;;;;;;;26.55;19.67;;;3.20;99.90;;;;;;5060346;28;20528;-48
2022/01/11 08:55:50;;;;;;;22.70;14.15;;;3.10;99.90;;;;;;5055302;28;20113;-48
2022/01/11 08:58:20;;;;;;;22.73;16.15;;;2.80;99.90;;;;;;5035936;28;20041;-48
2022/01/11 09:00:49;;;;;;;20.15;9.90;;;2.60;99.90;;;;;;5054174;28;20461;-48
2022/01/11 09:03:15;;;;;;;16.13;9.88;;;2.50;99.90;;;;;;5054499;28;20033;-48
2022/01/11 09:05:42;;;;;;;13.63;9.07;;;2.00;99.90;;;;;;5054607;28;20031;-48
2022/01/11 09:08:09;;;;;;;13.35;7.70;;;2.10;99.90;;;;;;5063885;28;20031;-48
2022/01/11 09:10:35;;;;;;;23.38;14.88;;;2.00;99.90;;;;;;5074623;28;20036;-48
2022/01/11 09:13:01;;;;;;;18.30;10.68;;;2.10;99.90;;;;;;5074785;28;20124;-48
2022/01/11 09:15:28;;;;;;;20.95;11.88;;;2.00;99.90;;;;;;5074037;28;20520;-48
2022/01/11 09:17:55;;;;;;;16.45;10.48;;;2.00;99.90;;;;;;5038660;28;20044;-47
2022/01/11 09:20:21;;;;;;;18.73;11.20;;;2.00;99.90;;;;;;5074191;28;20029;-48
2022/01/11 09:22:47;;;;;;;13.25;7.68;;;1.80;99.90;;;;;;5074360;28;20547;-47
2022/01/11 09:25:13;;;;;;;9.75;6.53;;;1.80;99.90;;;;;;5074169;28;20479;-48
2022/01/11 09:27:41;;;;;;;7.93;5.20;;;1.80;99.90;;;;;;5073961;28;20043;-48
2022/01/11 09:30:11;;;;;;;12.77;6.55;;;1.70;99.90;;;;;;5073261;28;20108;-47
2022/01/11 09:32:38;;;;;;;14.27;7.78;;;1.70;99.90;;;;;;5022524;28;20121;-47
2022/01/11 09:35:06;;;;;;;16.50;9.07;;;1.80;99.90;;;;;;5022416;28;20032;-48
2022/01/11 09:37:32;;;;;;;10.43;6.60;;;1.90;99.90;;;;;;5038904;28;20036;-48
2022/01/11 09:39:58;;;;;;;18.58;10.23;;;1.70;99.90;;;;;;5074056;28;20032;-47
2022/01/11 09:42:25;;;;;;;15.88;8.50;;;1.90;99.90;;;;;;5038957;28;20047;-47
2022/01/11 09:44:51;;;;;;;17.90;10.40;;;1.80;99.90;;;;;;5073991;28;20375;-47
2022/01/11 09:47:17;;;;;;;12.50;6.72;;;1.70;99.90;;;;;;5038508;28;20127;-47
2022/01/11 09:49:43;;;;;;;21.58;12.63;;;1.80;99.90;;;;;;5038600;28;20112;-48
2022/01/11 09:52:11;;;;;;;13.38;8.32;;;1.90;99.90;;;;;;5074125;28;20075;-47
2022/01/11 09:54:41;;;;;;;8.63;4.53;;;1.90;99.90;;;;;;5074036;28;20525;-48
2022/01/11 09:57:09;;;;;;;15.60;9.98;;;1.90;99.90;;;;;;5073723;28;20356;-47
2022/01/11 09:59:35;;;;;;;16.45;8.75;;;2.00;99.90;;;;;;5073084;28;20029;-48
2022/01/11 10:02:01;;;;;;;16.85;9.57;;;2.00;99.90;;;;;;5031551;28;20038;-47
2022/01/11 10:04:32;;;;;;;17.67;10.35;;;2.20;99.90;;;;;;5029421;28;20044;-47
2022/01/11 10:07:06;;;;;;;52.67;27.80;;;2.20;99.90;;;;;;5023079;28;20501;-48
2022/01/11 10:09:41;;;;;;;73.75;34.78;;;2.40;99.90;;;;;;4998541;28;20041;-47
2022/01/11 10:12:12;;;;;;;25.15;11.95;;;2.20;99.90;;;;;;4994921;28;20034;-47
2022/01/11 10:14:43;;;;;;;96.22;39.15;;;2.30;99.90;;;;;;5020481;28;20232;-48
2022/01/11 10:17:19;;;;;;;145.27;56.70;;;2.30;99.90;;;;;;5022228;28;20056;-47
2022/01/11 10:20:05;;;;;;;57.03;27.92;;;2.20;99.90;;;;;;5023436;28;20029;-47
2022/01/11 10:22:32;;;;;;;156.07;64.18;;;2.10;99.90;;;;;;5025565;28;20034;-48
2022/01/11 10:24:59;;;;;;;75.82;36.00;;;2.10;99.90;;;;;;5021053;28;20508;-48
2022/01/11 10:27:29;;;;;;;174.55;77.53;;;2.20;99.90;;;;;;5021536;28;20042;-47
2022/01/11 10:30:00;;;;;;;92.53;38.90;;;2.50;99.90;;;;;;4994066;28;20149;-49
2022/01/11 10:32:35;;;;;;;131.23;60.90;;;2.20;99.90;;;;;;5032859;28;20041;-48
2022/01/11 10:35:05;;;;;;;19.85;13.27;;;2.30;99.90;;;;;;5045081;28;20029;-48
2022/01/11 10:37:43;;;;;;;41.60;24.08;;;2.10;99.90;;;;;;5062000;28;20124;-48
2022/01/11 10:40:09;;;;;;;42.97;24.25;;;2.30;99.90;;;;;;5018019;28;20069;-48
2022/01/11 10:42:41;;;;;;;81.15;46.58;;;2.30;99.90;;;;;;5029120;28;20033;-48
2022/01/11 10:45:11;;;;;;;57.70;34.10;;;2.40;99.90;;;;;;5064130;28;20112;-47
2022/01/11 10:47:40;;;;;;;24.98;14.73;;;2.60;99.90;;;;;;5057997;28;20102;-48
2022/01/11 10:50:09;;;;;;;83.53;38.83;;;2.30;99.90;;;;;;5030217;28;20103;-48
2022/01/11 10:52:35;;;;;;;59.38;29.27;;;2.20;99.90;;;;;;5032930;28;20357;-48
2022/01/11 10:55:17;;;;;;;44.03;22.95;;;2.20;99.90;;;;;;5030468;28;20049;-49
2022/01/11 10:57:48;;;;;;;19.33;11.05;;;2.20;99.90;;;;;;4996299;28;20072;-48
2022/01/11 11:00:38;;;;;;;15.68;9.23;;;2.10;99.90;;;;;;5029957;28;20120;-48
2022/01/11 11:03:16;;;;;;;11.90;6.03;;;2.10;99.90;;;;;;5014182;28;20056;-48
2022/01/11 11:05:47;;;;;;;14.77;7.57;;;1.90;99.90;;;;;;5013629;28;20034;-48
2022/01/11 11:08:16;;;;;;;23.35;12.73;;;1.90;99.90;;;;;;5021350;28;20070;-48
2022/01/11 11:10:55;;;;;;;65.95;31.95;;;2.10;99.90;;;;;;4998968;28;20048;-48
2022/01/11 11:13:41;;;;;;;25.10;11.15;;;2.30;99.90;;;;;;5034155;28;20057;-48
2022/01/11 11:16:16;;;;;;;110.95;50.53;;;2.10;99.90;;;;;;5033293;28;20045;-48
2022/01/11 11:18:47;;;;;;;21.90;12.43;;;2.40;99.90;;;;;;5034121;28;20037;-47
2022/01/11 11:21:24;;;;;;;36.07;21.63;;;2.50;99.90;;;;;;5052439;28;20036;-48
2022/01/11 11:23:56;;;;;;;17.52;11.05;;;2.40;99.90;;;;;;5076862;28;20036;-48
2022/01/11 11:26:24;;;;;;;15.98;9.57;;;2.30;99.90;;;;;;5068345;28;20091;-48
2022/01/11 11:28:51;;;;;;;19.17;11.85;;;2.30;99.90;;;;;;5056859;28;20044;-47
2022/01/11 11:31:18;;;;;;;20.73;14.05;;;3.10;99.90;;;;;;5024445;28;20387;-47
2022/01/11 11:33:44;;;;;;;22.20;13.40;;;2.90;99.90;;;;;;5076452;28;20029;-48
2022/01/11 11:36:14;;;;;;;18.55;12.60;;;3.10;99.90;;;;;;5041004;28;20071;-47
2022/01/11 11:38:52;;;;;;;20.88;13.25;;;3.10;99.90;;;;;;5076304;28;20071;-48
2022/01/11 11:41:19;;;;;;;18.92;12.65;;;3.30;99.90;;;;;;5076257;28;20036;-48
2022/01/11 11:44:08;;;;;;;20.77;14.70;;;2.70;99.90;;;;;;5057761;28;20045;-48
2022/01/11 11:46:45;;;;;;;19.42;13.43;;;3.00;99.90;;;;;;5076153;28;20193;-48
2022/01/11 11:49:15;;;;;;;21.52;13.68;;;3.10;99.90;;;;;;5075299;28;20499;-47
2022/01/11 11:51:43;;;;;;;20.13;13.10;;;2.80;99.90;;;;;;5040914;28;20483;-47
2022/01/11 11:54:14;;;;;;;24.48;14.30;;;3.10;99.90;;;;;;5076306;28;20028;-47
2022/01/11 11:56:44;;;;;;;19.67;13.18;;;3.20;99.90;;;;;;5076123;28;20032;-48
2022/01/11 11:59:10;;;;;;;17.83;11.77;;;3.30;99.90;;;;;;5076116;28;20400;-48
2022/01/11 12:01:41;;;;;;;19.65;12.65;;;3.50;99.90;;;;;;5076062;28;20033;-48
2022/01/11 12:04:13;;;;;;;18.52;10.70;;;3.20;99.90;;;;;;5075879;28;20090;-48
2022/01/11 12:06:40;;;;;;;22.02;12.75;;;3.10;99.90;;;;;;5076023;28;20036;-48
2022/01/11 12:09:12;;;;;;;16.83;11.00;;;3.20;99.90;;;;;;5040646;28;20044;-47
2022/01/11 12:11:45;;;;;;;15.27;9.55;;;3.20;99.90;;;;;;5075775;28;20033;-47
2022/01/11 12:14:32;;;;;;;17.88;11.95;;;3.00;99.90;;;;;;5075821;28;20036;-48
2022/01/11 12:17:23;;;;;;;16.58;11.23;;;3.10;99.90;;;;;;5075603;28;20456;-48
2022/01/11 12:19:53;;;;;;;15.88;10.35;;;3.00;99.90;;;;;;5075809;28;20090;-47
2022/01/11 12:22:22;;;;;;;16.67;11.55;;;2.90;99.90;;;;;;5053624;28;20044;-47
2022/01/11 12:24:50;;;;;;;13.73;7.32;;;3.10;99.90;;;;;;5075631;28;20033;-48
2022/01/11 12:27:19;;;;;;;20.38;12.60;;;3.00;99.90;;;;;;5075556;28;20500;-48
2022/01/11 12:30:08;;;;;;;23.85;14.13;;;3.10;99.90;;;;;;5075526;28;20039;-48
2022/01/11 12:32:56;;;;;;;19.83;13.18;;;3.30;99.90;;;;;;5075404;28;20123;-47
2022/01/11 12:35:22;;;;;;;21.60;14.27;;;3.30;99.90;;;;;;5075354;28;20034;-48
2022/01/11 12:37:49;;;;;;;20.08;13.45;;;3.40;99.90;;;;;;5075244;28;20044;-47
2022/01/11 12:40:29;;;;;;;22.40;14.02;;;3.30;99.90;;;;;;5075129;28;20040;-48
2022/01/11 12:43:02;;;;;;;19.60;12.70;;;3.50;99.90;;;;;;5075054;28;20032;-48